M/T Goviken — 9HA2718 — position and weather

sailwx.info

Track history (hours):
 
Tides and Currents Weather Stations Pressure Air Temp Water Temp Dewpoint Dewpoint Depression Visibility Wind Speed Wind Dir Waves Ship Positions

M/T Goviken

Last reported at 2015-Aug-31 07:33 UTC. Time now 2015-Aug-31 17:46 UTC.
Position N 59°13' E 005°32'.

Length 88 m; draft 5.3 m.

Type: Ship (hazmat cat A). MMSI: 215389000.

Date/timePositionNaut miles runAvg speedWind from/ knotsBaromVisibWave heightAir tempDewpointWater temp
2015-Aug-31 07:33N 59°13' E 005°32'8 8.2
2015-Aug-31 06:33N 59°06' E 005°25'7 7.5
2015-Aug-31 05:33N 59°01' E 005°13'1211.9
2015-Aug-31 04:33N 58°50' E 005°06'26411.8
2015-Aug-30 06:15N 54°26' E 005°15'912.0
2015-Aug-30 05:32N 54°17' E 005°12'1212.1
2015-Aug-30 04:33N 54°06' E 005°08'1212.0
2015-Aug-30 03:33N 53°55' E 005°01'1211.6
2015-Aug-30 02:33N 53°44' E 004°54'1111.3
2015-Aug-30 01:33N 53°33' E 004°47'1111.1
2015-Aug-30 00:33N 53°23' E 004°40'1110.9
2015-Aug-29 23:33N 53°13' E 004°33'1110.8
2015-Aug-29 22:33N 53°03' E 004°25'1110.7
2015-Aug-29 21:33N 52°54' E 004°17'1110.5
2015-Aug-29 20:33N 52°45' E 004°08'1010.5
2015-Aug-29 19:33N 52°37' E 003°56'1110.9
2015-Aug-29 18:33N 52°29' E 003°43'1211.6
2015-Aug-29 17:33N 52°20' E 003°32'1212.2
2015-Aug-29 16:33N 52°08' E 003°27'1110.3
2015-Aug-29 15:31N 51°58' E 003°24'1512.6
2015-Aug-29 14:18N 51°43' E 003°17'912.1
2015-Aug-29 13:33N 51°35' E 003°24'1111.3
2015-Aug-29 12:33N 51°26' E 003°36'5 4.7
2015-Aug-29 11:30N 51°28' E 003°43'0 0.0
2015-Aug-29 10:33N 51°28' E 003°43'0 0.0
2015-Aug-29 09:33N 51°28' E 003°43'0 0.0
2015-Aug-29 08:30N 51°28' E 003°43'0 0.0
2015-Aug-29 07:30N 51°28' E 003°43'0 0.0
2015-Aug-29 06:33N 51°28' E 003°43'0 0.0
2015-Aug-29 05:33N 51°28' E 003°43'0 0.0
2015-Aug-29 04:30N 51°28' E 003°43'0 0.0
2015-Aug-29 03:30N 51°28' E 003°43'0 0.0
2015-Aug-29 02:33N 51°28' E 003°43'0 0.0
2015-Aug-29 01:33N 51°28' E 003°43'0 0.0
2015-Aug-29 00:30N 51°28' E 003°43'0 0.0
2015-Aug-28 23:30N 51°28' E 003°43'0 0.0
2015-Aug-28 22:30N 51°28' E 003°43'0 0.0
2015-Aug-28 21:24N 51°28' E 003°43'0 0.0
2015-Aug-28 20:27N 51°28' E 003°43'0 0.0
2015-Aug-28 19:30N 51°28' E 003°43'0 0.0
2015-Aug-28 18:33N 51°28' E 003°43'0 0.0
2015-Aug-28 17:33N 51°28' E 003°43'0 0.0
2015-Aug-28 16:30N 51°28' E 003°43'0 0.0
2015-Aug-28 15:33N 51°28' E 003°43'0 0.0
2015-Aug-28 14:30N 51°28' E 003°43'0 0.0
2015-Aug-28 13:30N 51°28' E 003°43'0 0.0
2015-Aug-28 12:30N 51°28' E 003°43'0 0.0
2015-Aug-28 11:30N 51°28' E 003°43'1 0.8
2015-Aug-28 10:33N 51°28' E 003°42'9 9.3
2015-Aug-28 09:33N 51°30' E 003°27'8111.0
2015-Aug-28 02:11N 52°50' E 003°50'710.0
2015-Aug-28 01:32N 52°55' E 003°57'10 9.8
2015-Aug-28 00:30N 53°02' E 004°09'3310.6
2015-Aug-27 21:25N 53°30' E 004°36'3110.7
2015-Aug-27 18:33N 53°59' E 004°54'1110.5
2015-Aug-27 17:29N 54°10' E 005°00'1010.6
2015-Aug-27 16:32N 54°20' E 005°05'267 9.5
2015-Aug-26 12:30N 58°47' E 005°06'7 7.5
2015-Aug-26 11:33N 58°54' E 005°07'9 8.6
2015-Aug-26 10:33N 59°02' E 005°11'10 9.5
2015-Aug-26 09:33N 59°08' E 005°26'8 8.4
2015-Aug-26 08:33N 59°16' E 005°30'0 0.1
2015-Aug-26 04:14N 59°16' E 005°30'0 0.0
2015-Aug-25 22:23N 59°16' E 005°30'2 2.9
2015-Aug-25 21:31N 59°14' E 005°31'0 0.0
2015-Aug-25 20:31N 59°14' E 005°31'0 0.0
2015-Aug-25 19:31N 59°14' E 005°31'0 0.0
2015-Aug-25 14:10N 59°14' E 005°30'0 0.0
2015-Aug-25 11:28N 59°14' E 005°30'0 0.1
2015-Aug-25 10:31N 59°14' E 005°31'0 0.0
2015-Aug-25 09:28N 59°14' E 005°31'0 0.1
2015-Aug-25 08:31N 59°14' E 005°31'0 0.1
2015-Aug-25 07:31N 59°14' E 005°30'0 0.0
2015-Aug-25 06:07N 59°14' E 005°30'0 0.0
2015-Aug-25 05:31N 59°14' E 005°30'0 0.0
2015-Aug-25 03:19N 59°14' E 005°30'0 0.0
2015-Aug-25 02:28N 59°14' E 005°30'0 0.0
2015-Aug-25 01:31N 59°14' E 005°30'0 0.0
2015-Aug-25 00:28N 59°14' E 005°30'0 0.0
2015-Aug-24 23:25N 59°14' E 005°30'0 0.0
2015-Aug-24 22:31N 59°14' E 005°30'0 0.0
2015-Aug-24 21:28N 59°14' E 005°30'0 0.0
2015-Aug-24 20:31N 59°14' E 005°30'0 0.0
2015-Aug-24 19:28N 59°14' E 005°30'0 0.0
2015-Aug-24 18:19N 59°14' E 005°30'1 0.9
2015-Aug-24 17:33N 59°13' E 005°32'6 6.1
2015-Aug-24 16:34N 59°07' E 005°29'5 5.4
2015-Aug-24 15:34N 59°05' E 005°20'6 5.7
2015-Aug-24 14:33N 59°01' E 005°12'7 7.2
2015-Aug-24 13:33N 58°54' E 005°07'9 8.6
2015-Aug-24 12:34N 58°45' E 005°06'10 9.5
2015-Aug-24 11:29N 58°35' E 005°04'204 9.1
2015-Aug-23 13:08N 55°11' E 005°33'5 9.1
2015-Aug-23 12:34N 55°06' E 005°31'9 9.0
2015-Aug-23 11:33N 54°57' E 005°27'9 9.1
2015-Aug-23 10:33N 54°48' E 005°24'9 9.1
2015-Aug-23 09:33N 54°39' E 005°21'9 9.1
2015-Aug-23 08:34N 54°31' E 005°17'9 9.2
2015-Aug-23 07:34N 54°22' E 005°14'9 9.2
2015-Aug-23 06:33N 54°13' E 005°10'9 9.1
2015-Aug-23 05:34N 54°04' E 005°06'9 8.7
2015-Aug-23 04:34N 53°56' E 005°01'9 8.6
2015-Aug-23 03:34N 53°48' E 004°56'9 8.8
2015-Aug-23 02:34N 53°39' E 004°51'9 9.1
2015-Aug-23 01:34N 53°31' E 004°45'9 9.5
2015-Aug-23 00:34N 53°22' E 004°39'1010.0
2015-Aug-22 23:33N 53°13' E 004°33'1010.4
2015-Aug-22 22:33N 53°03' E 004°25'1010.5
2015-Aug-22 21:34N 52°54' E 004°17'1110.6
2015-Aug-22 20:34N 52°45' E 004°08'1110.4
2015-Aug-22 19:32N 52°37' E 003°57'1010.8
2015-Aug-22 18:33N 52°27' E 003°54'1110.6
2015-Aug-22 17:33N 52°16' E 003°52'1010.0
2015-Aug-22 16:33N 52°06' E 003°54'8 8.2
2015-Aug-22 15:33N 51°60' E 004°03'9 8.9
2015-Aug-22 14:34N 51°54' E 004°14'1 1.1
2015-Aug-22 13:15N 51°53' E 004°15'0 0.0
2015-Aug-22 12:33N 51°53' E 004°15'0 0.0
2015-Aug-22 11:33N 51°53' E 004°15'0 0.0
2015-Aug-22 10:24N 51°53' E 004°15'0 0.0
2015-Aug-22 09:33N 51°53' E 004°15'0 0.0
2015-Aug-22 08:33N 51°53' E 004°15'0 0.0
2015-Aug-22 07:33N 51°53' E 004°15'0 0.0
2015-Aug-22 06:12N 51°53' E 004°15'0 0.0
2015-Aug-22 05:33N 51°53' E 004°15'0 0.0
2015-Aug-22 04:33N 51°53' E 004°15'0 0.0
2015-Aug-22 03:21N 51°53' E 004°15'0 0.0
2015-Aug-22 02:33N 51°53' E 004°15'0 0.0
2015-Aug-22 01:27N 51°53' E 004°15'0 0.0
2015-Aug-22 00:33N 51°53' E 004°15'0 0.0
2015-Aug-21 23:33N 51°53' E 004°15'0 0.0
2015-Aug-21 22:33N 51°53' E 004°15'0 0.0
2015-Aug-21 21:33N 51°53' E 004°15'0 0.0
2015-Aug-21 20:33N 51°53' E 004°15'0 0.0
2015-Aug-21 19:25N 51°53' E 004°15'1 1.5
2015-Aug-21 18:33N 51°54' E 004°14'2 2.4
2015-Aug-21 17:33N 51°56' E 004°12'8 8.5
2015-Aug-21 16:33N 51°60' E 003°60'10 9.9
2015-Aug-21 15:33N 52°06' E 003°47'1212.4
2015-Aug-21 14:33N 52°18' E 003°47'1512.8
2015-Aug-21 13:22N 52°33' E 003°52'  
Track history (hours):
 
Tides and Currents Weather Stations Pressure Air Temp Water Temp Dewpoint Dewpoint Depression Visibility Wind Speed Wind Dir Waves Ship Positions

M/T Goviken

Last reported at 2015-Aug-31 07:33 UTC. Time now 2015-Aug-31 17:46 UTC.
Position N 59°13' E 005°32'.

Length 88 m; draft 5.3 m.

Type: Ship (hazmat cat A). MMSI: 215389000.

Date/timePositionNaut miles runAvg speedWind from/ knotsBaromVisibWave heightAir tempDewpointWater temp
2015-Aug-31 07:33N 59°13' E 005°32'8 8.2
2015-Aug-31 06:33N 59°06' E 005°25'7 7.5
2015-Aug-31 05:33N 59°01' E 005°13'1211.9
2015-Aug-31 04:33N 58°50' E 005°06'26411.8
2015-Aug-30 06:15N 54°26' E 005°15'912.0
2015-Aug-30 05:32N 54°17' E 005°12'1212.1
2015-Aug-30 04:33N 54°06' E 005°08'1212.0
2015-Aug-30 03:33N 53°55' E 005°01'1211.6
2015-Aug-30 02:33N 53°44' E 004°54'1111.3
2015-Aug-30 01:33N 53°33' E 004°47'1111.1
2015-Aug-30 00:33N 53°23' E 004°40'1110.9
2015-Aug-29 23:33N 53°13' E 004°33'1110.8
2015-Aug-29 22:33N 53°03' E 004°25'1110.7
2015-Aug-29 21:33N 52°54' E 004°17'1110.5
2015-Aug-29 20:33N 52°45' E 004°08'1010.5
2015-Aug-29 19:33N 52°37' E 003°56'1110.9
2015-Aug-29 18:33N 52°29' E 003°43'1211.6
2015-Aug-29 17:33N 52°20' E 003°32'1212.2
2015-Aug-29 16:33N 52°08' E 003°27'1110.3
2015-Aug-29 15:31N 51°58' E 003°24'1512.6
2015-Aug-29 14:18N 51°43' E 003°17'912.1
2015-Aug-29 13:33N 51°35' E 003°24'1111.3
2015-Aug-29 12:33N 51°26' E 003°36'5 4.7
2015-Aug-29 11:30N 51°28' E 003°43'0 0.0
2015-Aug-29 10:33N 51°28' E 003°43'0 0.0
2015-Aug-29 09:33N 51°28' E 003°43'0 0.0
2015-Aug-29 08:30N 51°28' E 003°43'0 0.0
2015-Aug-29 07:30N 51°28' E 003°43'0 0.0
2015-Aug-29 06:33N 51°28' E 003°43'0 0.0
2015-Aug-29 05:33N 51°28' E 003°43'0 0.0
2015-Aug-29 04:30N 51°28' E 003°43'0 0.0
2015-Aug-29 03:30N 51°28' E 003°43'0 0.0
2015-Aug-29 02:33N 51°28' E 003°43'0 0.0
2015-Aug-29 01:33N 51°28' E 003°43'0 0.0
2015-Aug-29 00:30N 51°28' E 003°43'0 0.0
2015-Aug-28 23:30N 51°28' E 003°43'0 0.0
2015-Aug-28 22:30N 51°28' E 003°43'0 0.0
2015-Aug-28 21:24N 51°28' E 003°43'0 0.0
2015-Aug-28 20:27N 51°28' E 003°43'0 0.0
2015-Aug-28 19:30N 51°28' E 003°43'0 0.0
2015-Aug-28 18:33N 51°28' E 003°43'0 0.0
2015-Aug-28 17:33N 51°28' E 003°43'0 0.0
2015-Aug-28 16:30N 51°28' E 003°43'0 0.0
2015-Aug-28 15:33N 51°28' E 003°43'0 0.0
2015-Aug-28 14:30N 51°28' E 003°43'0 0.0
2015-Aug-28 13:30N 51°28' E 003°43'0 0.0
2015-Aug-28 12:30N 51°28' E 003°43'0 0.0
2015-Aug-28 11:30N 51°28' E 003°43'1 0.8
2015-Aug-28 10:33N 51°28' E 003°42'9 9.3
2015-Aug-28 09:33N 51°30' E 003°27'8111.0
2015-Aug-28 02:11N 52°50' E 003°50'710.0
2015-Aug-28 01:32N 52°55' E 003°57'10 9.8
2015-Aug-28 00:30N 53°02' E 004°09'3310.6
2015-Aug-27 21:25N 53°30' E 004°36'3110.7
2015-Aug-27 18:33N 53°59' E 004°54'1110.5
2015-Aug-27 17:29N 54°10' E 005°00'1010.6
2015-Aug-27 16:32N 54°20' E 005°05'267 9.5
2015-Aug-26 12:30N 58°47' E 005°06'7 7.5
2015-Aug-26 11:33N 58°54' E 005°07'9 8.6
2015-Aug-26 10:33N 59°02' E 005°11'10 9.5
2015-Aug-26 09:33N 59°08' E 005°26'8 8.4
2015-Aug-26 08:33N 59°16' E 005°30'0 0.1
2015-Aug-26 04:14N 59°16' E 005°30'0 0.0
2015-Aug-25 22:23N 59°16' E 005°30'2 2.9
2015-Aug-25 21:31N 59°14' E 005°31'0 0.0
2015-Aug-25 20:31N 59°14' E 005°31'0 0.0
2015-Aug-25 19:31N 59°14' E 005°31'0 0.0
2015-Aug-25 14:10N 59°14' E 005°30'0 0.0
2015-Aug-25 11:28N 59°14' E 005°30'0 0.1
2015-Aug-25 10:31N 59°14' E 005°31'0 0.0
2015-Aug-25 09:28N 59°14' E 005°31'0 0.1
2015-Aug-25 08:31N 59°14' E 005°31'0 0.1
2015-Aug-25 07:31N 59°14' E 005°30'0 0.0
2015-Aug-25 06:07N 59°14' E 005°30'0 0.0
2015-Aug-25 05:31N 59°14' E 005°30'0 0.0
2015-Aug-25 03:19N 59°14' E 005°30'0 0.0
2015-Aug-25 02:28N 59°14' E 005°30'0 0.0
2015-Aug-25 01:31N 59°14' E 005°30'0 0.0
2015-Aug-25 00:28N 59°14' E 005°30'0 0.0
2015-Aug-24 23:25N 59°14' E 005°30'0 0.0
2015-Aug-24 22:31N 59°14' E 005°30'0 0.0
2015-Aug-24 21:28N 59°14' E 005°30'0 0.0
2015-Aug-24 20:31N 59°14' E 005°30'0 0.0
2015-Aug-24 19:28N 59°14' E 005°30'0 0.0
2015-Aug-24 18:19N 59°14' E 005°30'1 0.9
2015-Aug-24 17:33N 59°13' E 005°32'6 6.1
2015-Aug-24 16:34N 59°07' E 005°29'5 5.4
2015-Aug-24 15:34N 59°05' E 005°20'6 5.7
2015-Aug-24 14:33N 59°01' E 005°12'7 7.2
2015-Aug-24 13:33N 58°54' E 005°07'9 8.6
2015-Aug-24 12:34N 58°45' E 005°06'10 9.5
2015-Aug-24 11:29N 58°35' E 005°04'204 9.1
2015-Aug-23 13:08N 55°11' E 005°33'5 9.1
2015-Aug-23 12:34N 55°06' E 005°31'9 9.0
2015-Aug-23 11:33N 54°57' E 005°27'9 9.1
2015-Aug-23 10:33N 54°48' E 005°24'9 9.1
2015-Aug-23 09:33N 54°39' E 005°21'9 9.1
2015-Aug-23 08:34N 54°31' E 005°17'9 9.2
2015-Aug-23 07:34N 54°22' E 005°14'9 9.2
2015-Aug-23 06:33N 54°13' E 005°10'9 9.1
2015-Aug-23 05:34N 54°04' E 005°06'9 8.7
2015-Aug-23 04:34N 53°56' E 005°01'9 8.6
2015-Aug-23 03:34N 53°48' E 004°56'9 8.8
2015-Aug-23 02:34N 53°39' E 004°51'9 9.1
2015-Aug-23 01:34N 53°31' E 004°45'9 9.5
2015-Aug-23 00:34N 53°22' E 004°39'1010.0
2015-Aug-22 23:33N 53°13' E 004°33'1010.4
2015-Aug-22 22:33N 53°03' E 004°25'1010.5
2015-Aug-22 21:34N 52°54' E 004°17'1110.6
2015-Aug-22 20:34N 52°45' E 004°08'1110.4
2015-Aug-22 19:32N 52°37' E 003°57'1010.8
2015-Aug-22 18:33N 52°27' E 003°54'1110.6
2015-Aug-22 17:33N 52°16' E 003°52'1010.0
2015-Aug-22 16:33N 52°06' E 003°54'8 8.2
2015-Aug-22 15:33N 51°60' E 004°03'9 8.9
2015-Aug-22 14:34N 51°54' E 004°14'1 1.1
2015-Aug-22 13:15N 51°53' E 004°15'0 0.0
2015-Aug-22 12:33N 51°53' E 004°15'0 0.0
2015-Aug-22 11:33N 51°53' E 004°15'0 0.0
2015-Aug-22 10:24N 51°53' E 004°15'0 0.0
2015-Aug-22 09:33N 51°53' E 004°15'0 0.0
2015-Aug-22 08:33N 51°53' E 004°15'0 0.0
2015-Aug-22 07:33N 51°53' E 004°15'0 0.0
2015-Aug-22 06:12N 51°53' E 004°15'0 0.0
2015-Aug-22 05:33N 51°53' E 004°15'0 0.0
2015-Aug-22 04:33N 51°53' E 004°15'0 0.0
2015-Aug-22 03:21N 51°53' E 004°15'0 0.0
2015-Aug-22 02:33N 51°53' E 004°15'0 0.0
2015-Aug-22 01:27N 51°53' E 004°15'0 0.0
2015-Aug-22 00:33N 51°53' E 004°15'0 0.0
2015-Aug-21 23:33N 51°53' E 004°15'0 0.0
2015-Aug-21 22:33N 51°53' E 004°15'0 0.0
2015-Aug-21 21:33N 51°53' E 004°15'0 0.0
2015-Aug-21 20:33N 51°53' E 004°15'0 0.0
2015-Aug-21 19:25N 51°53' E 004°15'1 1.5
2015-Aug-21 18:33N 51°54' E 004°14'2 2.4
2015-Aug-21 17:33N 51°56' E 004°12'8 8.5
2015-Aug-21 16:33N 51°60' E 003°60'10 9.9
2015-Aug-21 15:33N 52°06' E 003°47'1212.4
2015-Aug-21 14:33N 52°18' E 003°47'1512.8
2015-Aug-21 13:22N 52°33' E 003°52'  

Dump ship's entire track history